Time;durP1;ratioP1;P1;durP2;ratioP2;P2;SDS_P1;SDS_P2;PMS_P1;PMS_P2;Temp;Humidity;BMP_temperature;BMP_pressure;BME280_temperature;BME280_humidity;BME280_pressure;Samples;Min_cycle;Max_cycle;Signal;HPM_P1;HPM_P2
2023/01/14 00:02:04;;;;;;;2.38;1.33;;;16.80;54.20;;;;;;5088679;27;45255;-76
2023/01/14 00:04:31;;;;;;;1.77;1.20;;;16.80;54.20;;;;;;5089508;27;45300;-76
2023/01/14 00:06:57;;;;;;;2.17;1.10;;;16.80;54.20;;;;;;5089525;27;45311;-76
2023/01/14 00:09:29;;;;;;;3.22;1.00;;;16.80;54.30;;;;;;5089675;27;45387;-76
2023/01/14 00:11:55;;;;;;;1.20;0.98;;;16.80;54.20;;;;;;5088993;27;45441;-75
2023/01/14 00:14:24;;;;;;;1.42;1.33;;;16.80;54.20;;;;;;5089022;27;45258;-75
2023/01/14 00:16:51;;;;;;;3.58;1.27;;;16.80;54.20;;;;;;5089520;27;45186;-76
2023/01/14 00:19:19;;;;;;;2.00;1.02;;;16.80;54.20;;;;;;5089399;27;45497;-76
2023/01/14 00:21:45;;;;;;;1.70;1.20;;;16.80;54.20;;;;;;5089099;27;47701;-75
2023/01/14 00:24:13;;;;;;;2.97;1.30;;;16.80;54.30;;;;;;5088614;27;45356;-76
2023/01/14 00:26:41;;;;;;;1.88;1.00;;;16.80;54.30;;;;;;5089213;27;45235;-75
2023/01/14 00:29:09;;;;;;;1.92;1.13;;;16.80;54.30;;;;;;5089437;27;45177;-76
2023/01/14 00:31:36;;;;;;;2.15;1.10;;;16.70;54.20;;;;;;5089161;27;47412;-76
2023/01/14 00:34:02;;;;;;;1.95;1.20;;;16.80;54.30;;;;;;5088935;27;45253;-76
2023/01/14 00:36:29;;;;;;;1.80;1.30;;;16.80;54.80;;;;;;5089073;27;45309;-76
2023/01/14 00:38:56;;;;;;;1.95;1.27;;;16.80;54.30;;;;;;5089121;27;45177;-76
2023/01/14 00:41:24;;;;;;;2.25;1.20;;;16.80;54.30;;;;;;5088682;27;45307;-76
2023/01/14 00:43:53;;;;;;;1.58;0.98;;;16.80;54.30;;;;;;5088635;27;45261;-75
2023/01/14 00:46:20;;;;;;;1.67;1.20;;;16.80;54.30;;;;;;5088859;27;45232;-75
2023/01/14 00:48:47;;;;;;;1.55;1.10;;;16.80;54.30;;;;;;5088387;27;45384;-75
2023/01/14 00:51:14;;;;;;;0.98;0.98;;;16.70;54.30;;;;;;5088611;27;45202;-75
2023/01/14 00:53:41;;;;;;;2.30;1.20;;;16.70;54.20;;;;;;5088613;27;45310;-75
2023/01/14 00:56:08;;;;;;;1.20;0.88;;;16.70;54.20;;;;;;5088679;27;45208;-75
2023/01/14 00:58:35;;;;;;;2.13;1.45;;;16.70;54.30;;;;;;5088842;27;45255;-75
2023/01/14 01:01:03;;;;;;;1.30;1.08;;;16.70;54.30;;;;;;5088613;27;45257;-75
2023/01/14 01:03:30;;;;;;;0.90;0.80;;;16.70;54.20;;;;;;5088610;27;45237;-75
2023/01/14 01:05:57;;;;;;;2.47;1.10;;;16.70;54.30;;;;;;5088688;27;45319;-75
2023/01/14 01:08:24;;;;;;;2.45;1.10;;;16.70;54.30;;;;;;5088601;27;45305;-75
2023/01/14 01:10:53;;;;;;;1.92;1.20;;;16.70;54.30;;;;;;5088295;27;46353;-75
2023/01/14 01:13:22;;;;;;;4.47;1.40;;;16.70;54.30;;;;;;5088268;27;45205;-75
2023/01/14 01:15:49;;;;;;;1.65;1.02;;;16.70;54.30;;;;;;5088383;27;45445;-75
2023/01/14 01:18:17;;;;;;;1.23;1.00;;;16.70;54.30;;;;;;5088567;27;45195;-75
2023/01/14 01:20:44;;;;;;;1.40;0.93;;;16.70;54.20;;;;;;5088096;27;45232;-75
2023/01/14 01:23:11;;;;;;;0.90;0.85;;;16.70;54.30;;;;;;5087788;27;45374;-74
2023/01/14 01:25:38;;;;;;;1.17;0.70;;;16.70;54.30;;;;;;5088227;27;45294;-75
2023/01/14 01:28:05;;;;;;;4.40;1.27;;;16.70;54.30;;;;;;5088465;27;45328;-75
2023/01/14 01:30:32;;;;;;;1.83;1.15;;;16.70;54.30;;;;;;5088014;27;45689;-75
2023/01/14 01:33:00;;;;;;;1.33;1.00;;;16.60;54.20;;;;;;5087308;27;45280;-75
2023/01/14 01:35:29;;;;;;;1.38;0.77;;;16.60;54.20;;;;;;5088065;27;45435;-75
2023/01/14 01:37:55;;;;;;;1.52;1.00;;;16.60;54.20;;;;;;5088169;27;45418;-75
2023/01/14 01:40:22;;;;;;;3.00;1.23;;;16.60;54.20;;;;;;5087721;27;46738;-75
2023/01/14 01:42:58;;;;;;;1.42;0.80;;;16.60;54.20;;;;;;5087779;27;45224;-75
2023/01/14 01:45:44;;;;;;;1.23;0.90;;;16.60;54.80;;;;;;5087926;27;45259;-75
2023/01/14 01:48:14;;;;;;;1.60;1.13;;;16.60;54.20;;;;;;5088120;27;45237;-75
2023/01/14 01:50:43;;;;;;;2.08;1.10;;;16.60;54.20;;;;;;5087521;27;45474;-75
2023/01/14 01:53:09;;;;;;;1.42;0.95;;;16.60;54.20;;;;;;5087733;27;45445;-75
2023/01/14 01:55:38;;;;;;;2.70;1.13;;;16.60;54.30;;;;;;5087939;27;45298;-75
2023/01/14 01:58:05;;;;;;;1.58;0.90;;;16.60;54.20;;;;;;5087794;27;45231;-75
2023/01/14 02:00:31;;;;;;;2.42;1.13;;;16.60;54.20;;;;;;5087427;27;45238;-75
2023/01/14 02:03:01;;;;;;;2.15;0.85;;;16.60;54.20;;;;;;5087446;27;45338;-75
2023/01/14 02:05:28;;;;;;;1.85;1.00;;;16.60;54.20;;;;;;5087660;27;45248;-75
2023/01/14 02:07:56;;;;;;;1.52;1.10;;;16.60;54.20;;;;;;5087168;27;45349;-75
2023/01/14 02:10:23;;;;;;;1.75;0.90;;;16.60;54.20;;;;;;5087318;27;46355;-75
2023/01/14 02:13:08;;;;;;;2.05;1.20;;;16.60;54.20;;;;;;5087359;27;45203;-75
2023/01/14 02:15:41;;;;;;;1.02;0.80;;;16.60;54.20;;;;;;5087408;27;45209;-76
2023/01/14 02:18:15;;;;;;;1.60;0.80;;;16.60;54.30;;;;;;5087558;27;45210;-75
2023/01/14 02:20:43;;;;;;;2.10;0.85;;;16.60;54.20;;;;;;5087096;27;46399;-75
2023/01/14 02:23:42;;;;;;;1.55;0.80;;;16.60;54.20;;;;;;5087035;27;45173;-75
2023/01/14 02:26:32;;;;;;;2.28;0.77;;;16.60;54.20;;;;;;5084375;27;45467;-75
2023/01/14 02:29:51;;;;;;;1.63;0.65;;;16.60;54.20;;;;;;5087416;27;45591;-75
2023/01/14 02:32:23;;;;;;;1.02;0.73;;;16.60;54.20;;;;;;5024335;28;45375;-75
2023/01/14 02:34:52;;;;;;;1.48;0.98;;;16.60;54.20;;;;;;5024364;28;45310;-75
2023/01/14 02:37:22;;;;;;;1.45;0.70;;;16.50;54.10;;;;;;5054296;27;45378;-75
2023/01/14 02:39:51;;;;;;;1.48;0.80;;;16.50;54.20;;;;;;5087246;27;45245;-75
2023/01/14 02:45:08;;;;;;;2.22;0.88;;;16.50;54.10;;;;;;5084461;28;45193;-75
2023/01/14 02:47:37;;;;;;;1.27;0.85;;;16.50;54.10;;;;;;5087070;27;45185;-75
2023/01/14 02:50:04;;;;;;;1.33;1.08;;;16.50;54.10;;;;;;5087134;27;45462;-75
2023/01/14 02:52:31;;;;;;;1.00;0.80;;;16.50;54.10;;;;;;5086787;27;45298;-75
2023/01/14 02:54:58;;;;;;;2.33;0.88;;;16.50;54.10;;;;;;5086716;27;45551;-75
2023/01/14 02:57:36;;;;;;;1.13;0.70;;;16.50;54.10;;;;;;5086966;27;45200;-75
2023/01/14 03:00:06;;;;;;;1.73;0.90;;;16.50;54.10;;;;;;5086992;27;45399;-75
2023/01/14 03:02:43;;;;;;;1.60;0.82;;;16.50;54.20;;;;;;5086631;27;46409;-75
2023/01/14 03:05:16;;;;;;;0.90;0.80;;;16.50;54.20;;;;;;5086770;27;45262;-75
2023/01/14 03:07:45;;;;;;;1.83;0.90;;;16.50;54.20;;;;;;5086937;27;45197;-75
2023/01/14 03:10:16;;;;;;;3.17;1.00;;;16.50;54.20;;;;;;5086934;27;45321;-75
2023/01/14 03:12:44;;;;;;;2.42;1.08;;;16.50;54.10;;;;;;5086465;27;46985;-75
2023/01/14 03:15:17;;;;;;;0.75;0.73;;;16.50;54.20;;;;;;5086466;27;45117;-75
2023/01/14 03:17:46;;;;;;;1.52;1.00;;;16.50;54.20;;;;;;5087533;27;45197;-75
2023/01/14 03:20:15;;;;;;;0.77;0.65;;;16.50;54.10;;;;;;5090327;27;45426;-75
2023/01/14 03:22:42;;;;;;;0.90;0.80;;;16.50;54.10;;;;;;5089816;27;45212;-75
2023/01/14 03:25:09;;;;;;;1.65;1.15;;;16.50;54.20;;;;;;5090047;27;45176;-75
2023/01/14 03:27:36;;;;;;;1.65;0.80;;;16.40;54.20;;;;;;5090431;27;45409;-75
2023/01/14 03:30:05;;;;;;;2.05;1.02;;;16.40;54.10;;;;;;5090404;27;45220;-74
2023/01/14 03:32:33;;;;;;;2.47;1.00;;;16.40;54.10;;;;;;5089161;27;45454;-75
2023/01/14 03:35:11;;;;;;;1.30;0.73;;;16.40;54.10;;;;;;5089763;27;45252;-75
2023/01/14 03:37:38;;;;;;;1.02;0.90;;;16.40;54.10;;;;;;5089531;27;45282;-74
2023/01/14 03:40:07;;;;;;;2.35;0.90;;;16.40;54.10;;;;;;5090034;27;45362;-75
2023/01/14 03:42:36;;;;;;;1.55;0.70;;;16.40;54.10;;;;;;5089748;27;45606;-75
2023/01/14 03:45:06;;;;;;;0.63;0.63;;;16.40;54.10;;;;;;5089781;27;45241;-75
2023/01/14 03:47:34;;;;;;;2.45;0.90;;;16.40;54.60;;;;;;5089817;27;45181;-75
2023/01/14 03:50:04;;;;;;;1.55;0.80;;;16.40;54.10;;;;;;5089926;27;45352;-75
2023/01/14 03:52:50;;;;;;;1.30;0.70;;;16.40;54.10;;;;;;5089523;27;45492;-75
2023/01/14 03:55:18;;;;;;;0.80;0.80;;;16.40;54.10;;;;;;5086853;27;45182;-75
2023/01/14 03:57:47;;;;;;;1.35;0.75;;;16.40;54.10;;;;;;5089676;27;45315;-75
2023/01/14 04:00:16;;;;;;;1.85;0.80;;;16.40;54.10;;;;;;5089743;27;45478;-75
2023/01/14 04:02:43;;;;;;;0.63;0.60;;;16.40;54.10;;;;;;5089349;27;45271;-75
2023/01/14 04:05:11;;;;;;;2.58;0.85;;;16.40;54.10;;;;;;5089506;27;45209;-75
2023/01/14 04:07:38;;;;;;;1.85;0.70;;;16.40;54.10;;;;;;5089397;27;45385;-75
2023/01/14 04:10:05;;;;;;;1.20;0.80;;;16.40;54.10;;;;;;5089515;27;45237;-75
2023/01/14 04:12:32;;;;;;;2.13;1.00;;;16.40;54.10;;;;;;5089198;27;46727;-75
2023/01/14 04:17:57;;;;;;;1.42;0.80;;;16.40;54.10;;;;;;5024071;28;45372;-75
2023/01/14 04:20:25;;;;;;;1.13;0.75;;;16.40;54.10;;;;;;5026536;28;45305;-75
2023/01/14 04:22:52;;;;;;;2.15;0.93;;;16.40;54.10;;;;;;5052790;28;46695;-75
2023/01/14 04:25:19;;;;;;;0.80;0.75;;;16.40;54.10;;;;;;5089068;27;45189;-75
2023/01/14 04:27:46;;;;;;;1.10;0.80;;;16.40;54.10;;;;;;5089290;27;45114;-75
2023/01/14 04:30:13;;;;;;;1.77;0.93;;;16.40;54.20;;;;;;5088521;27;45400;-75
2023/01/14 04:32:40;;;;;;;1.70;1.23;;;16.30;54.00;;;;;;5088940;27;45353;-75
2023/01/14 04:35:07;;;;;;;2.63;1.00;;;16.40;54.10;;;;;;5089024;27;45231;-75
2023/01/14 04:37:36;;;;;;;1.58;1.08;;;16.40;54.10;;;;;;5088718;27;45240;-74
2023/01/14 04:40:02;;;;;;;1.48;0.68;;;16.30;54.00;;;;;;5088240;27;45388;-75
2023/01/14 04:42:31;;;;;;;3.10;0.90;;;16.30;54.00;;;;;;5088689;27;46375;-75
2023/01/14 04:44:58;;;;;;;2.38;0.80;;;16.30;54.00;;;;;;5088816;27;45122;-75
2023/01/14 04:47:25;;;;;;;1.30;0.80;;;16.30;54.00;;;;;;5088901;27;45243;-75
2023/01/14 04:49:52;;;;;;;1.60;0.75;;;16.30;54.00;;;;;;5088983;27;45364;-75
2023/01/14 04:52:19;;;;;;;3.58;0.88;;;16.30;54.00;;;;;;5088526;27;46350;-75
2023/01/14 04:54:47;;;;;;;1.67;0.90;;;16.30;54.00;;;;;;5088623;27;45306;-74
2023/01/14 04:57:14;;;;;;;1.05;0.70;;;16.30;54.00;;;;;;5088659;27;45192;-75
2023/01/14 04:59:40;;;;;;;1.55;0.80;;;16.30;54.00;;;;;;5088699;27;45172;-75
2023/01/14 05:02:07;;;;;;;1.67;0.95;;;16.30;54.00;;;;;;5088409;27;46390;-75
2023/01/14 05:04:34;;;;;;;1.60;1.05;;;16.30;54.00;;;;;;5088406;27;45289;-75
2023/01/14 05:07:02;;;;;;;2.03;0.85;;;16.30;54.00;;;;;;5088494;27;45238;-74
2023/01/14 05:09:29;;;;;;;0.90;0.70;;;16.30;54.00;;;;;;5088852;27;45556;-75
2023/01/14 05:11:57;;;;;;;0.80;0.80;;;16.30;54.10;;;;;;5088270;27;45491;-75
2023/01/14 05:14:24;;;;;;;3.40;0.65;;;16.30;54.70;;;;;;5088256;27;45324;-75
2023/01/14 05:16:51;;;;;;;2.65;0.80;;;16.30;54.00;;;;;;5088380;27;45284;-75
2023/01/14 05:19:18;;;;;;;0.90;0.77;;;16.30;54.00;;;;;;5088481;27;45180;-75
2023/01/14 05:21:44;;;;;;;0.73;0.60;;;16.30;54.00;;;;;;5087545;27;46391;-74
2023/01/14 05:24:11;;;;;;;1.52;0.70;;;16.30;54.00;;;;;;5087214;27;45176;-74
2023/01/14 05:26:38;;;;;;;0.70;0.70;;;16.30;54.10;;;;;;5088173;27;45302;-75
2023/01/14 05:29:06;;;;;;;1.27;0.73;;;16.30;54.10;;;;;;5088407;27;45279;-75
2023/01/14 05:31:33;;;;;;;1.13;0.70;;;16.30;54.00;;;;;;5087908;27;46405;-75
2023/01/14 05:34:00;;;;;;;1.35;0.88;;;16.30;54.00;;;;;;5088009;27;45180;-75
2023/01/14 05:36:27;;;;;;;1.60;0.90;;;16.30;54.00;;;;;;5088012;27;45327;-75
2023/01/14 05:38:54;;;;;;;0.73;0.60;;;16.30;54.00;;;;;;5088169;27;45480;-75
2023/01/14 05:41:21;;;;;;;2.83;0.95;;;16.30;54.00;;;;;;5086603;27;46361;-75
2023/01/14 05:46:33;;;;;;;1.27;0.70;;;16.40;54.00;;;;;;5085342;28;45343;-75
2023/01/14 05:49:00;;;;;;;2.10;0.65;;;16.60;53.40;;;;;;5088125;27;45402;-75
2023/01/14 05:51:27;;;;;;;0.60;0.60;;;16.80;53.10;;;;;;5087608;27;45230;-75
2023/01/14 05:53:54;;;;;;;0.82;0.50;;;16.90;52.70;;;;;;5087665;27;45259;-75
2023/01/14 05:56:20;;;;;;;1.17;0.75;;;17.10;52.40;;;;;;5087920;27;45276;-75
2023/01/14 05:58:47;;;;;;;2.00;0.65;;;17.10;52.80;;;;;;5087881;27;45459;-75
2023/01/14 06:06:47;;;;;;;0.95;0.55;;;17.20;51.80;;;;;;5084991;28;45236;-75
2023/01/14 06:09:14;;;;;;;0.98;0.50;;;17.30;51.70;;;;;;5087730;27;45356;-75
2023/01/14 06:11:44;;;;;;;0.98;0.60;;;17.30;52.30;;;;;;5087464;27;47282;-75
2023/01/14 06:14:10;;;;;;;1.67;0.82;;;17.30;51.60;;;;;;5087474;28;45179;-75
2023/01/14 06:16:39;;;;;;;1.05;0.70;;;17.30;51.60;;;;;;5087493;27;45188;-75
2023/01/14 06:19:08;;;;;;;0.93;0.50;;;17.30;51.60;;;;;;5087802;27;45387;-74
2023/01/14 06:21:35;;;;;;;3.22;0.88;;;17.40;51.60;;;;;;5087111;27;45213;-74
2023/01/14 06:24:02;;;;;;;1.25;0.60;;;17.40;51.60;;;;;;5086183;27;45251;-74
2023/01/14 06:26:29;;;;;;;0.77;0.50;;;17.30;51.50;;;;;;5087714;27;45367;-75
2023/01/14 06:28:57;;;;;;;2.15;0.75;;;17.40;51.60;;;;;;5087691;27;45298;-75
2023/01/14 06:31:24;;;;;;;2.35;0.75;;;17.30;51.50;;;;;;5087035;27;45719;-76
2023/01/14 06:33:50;;;;;;;1.80;0.80;;;17.30;51.50;;;;;;5087112;27;45217;-75
2023/01/14 06:36:19;;;;;;;5.35;1.08;;;17.30;51.40;;;;;;5087248;27;45192;-75
2023/01/14 06:38:45;;;;;;;3.50;0.75;;;17.30;51.50;;;;;;5087311;27;45339;-74
2023/01/14 06:41:12;;;;;;;1.40;0.80;;;17.30;52.10;;;;;;5086916;27;46375;-75
2023/01/14 06:43:41;;;;;;;5.82;0.90;;;17.30;51.50;;;;;;5086926;27;45208;-75
2023/01/14 06:46:09;;;;;;;3.78;0.80;;;17.30;51.60;;;;;;5087100;27;45293;-76
2023/01/14 06:48:35;;;;;;;2.30;0.60;;;17.30;51.60;;;;;;5087256;27;45288;-76
2023/01/14 06:51:06;;;;;;;1.20;0.85;;;17.30;51.60;;;;;;5086789;27;46754;-75
2023/01/14 06:53:34;;;;;;;1.23;0.70;;;17.30;51.70;;;;;;5088993;27;45194;-75
2023/01/14 06:56:02;;;;;;;2.17;0.60;;;17.30;51.80;;;;;;5090613;27;45314;-74
2023/01/14 06:58:29;;;;;;;1.58;0.88;;;17.30;51.80;;;;;;5090831;27;45272;-74
2023/01/14 07:00:56;;;;;;;2.65;0.63;;;17.30;52.40;;;;;;5090192;27;45252;-74
2023/01/14 07:03:23;;;;;;;3.35;0.80;;;17.30;51.80;;;;;;5090428;27;45322;-74
2023/01/14 07:05:50;;;;;;;1.88;0.90;;;17.30;51.80;;;;;;5090415;27;45260;-74
2023/01/14 07:08:16;;;;;;;1.30;0.73;;;17.20;51.80;;;;;;5089761;27;45476;-73
2023/01/14 07:10:48;;;;;;;2.60;0.88;;;17.20;51.90;;;;;;5089917;27;45274;-74
2023/01/14 07:13:15;;;;;;;2.15;0.82;;;17.20;51.90;;;;;;5090267;27;45257;-74
2023/01/14 07:15:43;;;;;;;2.22;0.80;;;17.20;51.90;;;;;;5090550;27;45294;-73
2023/01/14 07:18:10;;;;;;;1.83;0.88;;;17.20;51.90;;;;;;5090441;27;45562;-73
2023/01/14 07:20:37;;;;;;;1.70;0.75;;;17.30;52.00;;;;;;5090182;27;47473;-74
2023/01/14 07:23:03;;;;;;;1.05;0.50;;;17.20;51.90;;;;;;5089828;27;45423;-75
2023/01/14 07:25:30;;;;;;;1.90;0.70;;;17.30;52.10;;;;;;5090221;27;45319;-75
2023/01/14 07:27:58;;;;;;;7.60;0.75;;;17.20;52.00;;;;;;5090241;27;45366;-74
2023/01/14 07:30:25;;;;;;;3.63;0.93;;;17.20;52.10;;;;;;5089876;27;45212;-75
2023/01/14 07:32:52;;;;;;;1.98;0.80;;;17.20;52.10;;;;;;5089963;27;45131;-74
2023/01/14 07:35:19;;;;;;;4.65;1.17;;;17.20;52.10;;;;;;5090004;27;45204;-74
2023/01/14 07:37:46;;;;;;;1.73;0.60;;;17.20;52.20;;;;;;5090118;27;45426;-74
2023/01/14 07:40:13;;;;;;;1.98;0.90;;;17.20;51.90;;;;;;5089646;27;45272;-74
2023/01/14 07:42:40;;;;;;;2.05;0.80;;;17.20;51.10;;;;;;5089750;27;45870;-74
2023/01/14 07:45:09;;;;;;;3.00;0.88;;;17.20;50.70;;;;;;5089793;27;45122;-74
2023/01/14 07:47:36;;;;;;;1.70;0.70;;;17.20;50.70;;;;;;5089997;27;45417;-74
2023/01/14 07:50:03;;;;;;;2.00;0.40;;;17.10;50.70;;;;;;5089487;27;47303;-74
2023/01/14 07:52:30;;;;;;;1.30;0.70;;;17.10;50.90;;;;;;5089431;27;45214;-73
2023/01/14 07:54:57;;;;;;;0.82;0.60;;;17.10;51.20;;;;;;5088965;27;45252;-74
2023/01/14 07:57:24;;;;;;;1.35;0.75;;;17.10;51.40;;;;;;5089924;27;45332;-74
2023/01/14 07:59:50;;;;;;;2.03;0.60;;;17.10;51.50;;;;;;5089539;27;45422;-74
2023/01/14 08:02:19;;;;;;;2.42;0.77;;;17.10;51.50;;;;;;5089354;27;45233;-75
2023/01/14 08:04:46;;;;;;;2.13;0.50;;;17.10;51.60;;;;;;5088411;27;45211;-74
2023/01/14 08:07:13;;;;;;;0.60;0.50;;;17.10;51.70;;;;;;5089716;27;45239;-75
2023/01/14 08:09:40;;;;;;;3.72;0.70;;;17.10;51.80;;;;;;5088965;27;45300;-74
2023/01/14 08:12:07;;;;;;;4.43;0.77;;;17.10;51.40;;;;;;5089158;27;45353;-74
2023/01/14 08:14:34;;;;;;;2.67;0.98;;;17.10;50.70;;;;;;5089269;27;45323;-76
2023/01/14 08:17:02;;;;;;;3.20;0.80;;;17.10;50.80;;;;;;5089739;27;45172;-75
2023/01/14 08:19:30;;;;;;;2.40;0.77;;;17.10;50.70;;;;;;5089234;27;45476;-75
2023/01/14 08:21:57;;;;;;;2.75;0.57;;;17.00;50.30;;;;;;5089141;27;45303;-74
2023/01/14 08:24:24;;;;;;;2.35;0.50;;;17.00;50.10;;;;;;5089157;27;45310;-77
2023/01/14 08:26:51;;;;;;;0.85;0.32;;;17.00;50.20;;;;;;5089474;27;45461;-76
2023/01/14 08:29:18;;;;;;;0.65;0.65;;;17.00;50.10;;;;;;5089065;27;45245;-77
2023/01/14 08:31:45;;;;;;;2.33;0.38;;;17.00;50.10;;;;;;5089353;27;45162;-77
2023/01/14 08:34:13;;;;;;;1.75;0.50;;;17.00;49.90;;;;;;5089328;27;45264;-77
2023/01/14 08:36:41;;;;;;;0.98;0.57;;;17.00;49.80;;;;;;5088811;27;45364;-76
2023/01/14 08:39:09;;;;;;;1.55;0.60;;;16.90;49.90;;;;;;5088234;27;46402;-78
2023/01/14 08:41:36;;;;;;;6.32;0.73;;;16.90;49.70;;;;;;5089051;27;45310;-78
2023/01/14 08:44:03;;;;;;;0.80;0.47;;;16.90;49.80;;;;;;5089265;27;45309;-78
2023/01/14 08:46:30;;;;;;;1.25;0.50;;;16.90;49.90;;;;;;5089247;27;45260;-78
2023/01/14 08:48:56;;;;;;;1.10;0.57;;;16.90;49.70;;;;;;5088793;27;46661;-77
2023/01/14 08:51:26;;;;;;;0.88;0.73;;;16.90;49.60;;;;;;5088882;27;44668;-77
2023/01/14 08:53:55;;;;;;;1.08;0.50;;;16.90;49.40;;;;;;5089023;27;45310;-76
2023/01/14 08:56:22;;;;;;;1.95;0.60;;;16.90;49.60;;;;;;5089077;27;45388;-77
2023/01/14 08:58:49;;;;;;;0.40;0.40;;;16.90;49.70;;;;;;5088604;27;46411;-77
2023/01/14 09:01:15;;;;;;;1.90;0.75;;;16.90;49.70;;;;;;5088583;27;45133;-79
2023/01/14 09:03:43;;;;;;;1.13;0.80;;;16.90;49.60;;;;;;5089314;27;45245;-77
2023/01/14 09:06:11;;;;;;;0.80;0.63;;;16.90;49.60;;;;;;5089428;27;45305;-77
2023/01/14 09:17:06;;;;;;;1.33;0.45;;;16.90;49.50;;;;;;5085440;28;45186;-78
2023/01/14 09:19:34;;;;;;;1.40;0.40;;;16.90;49.40;;;;;;5088054;27;47557;-77
2023/01/14 09:22:01;;;;;;;3.65;0.80;;;16.90;49.50;;;;;;5088118;27;45137;-77
2023/01/14 09:24:28;;;;;;;2.15;0.60;;;16.80;49.60;;;;;;5088522;27;45230;-77
2023/01/14 09:26:56;;;;;;;0.60;0.47;;;16.80;49.60;;;;;;5088767;27;45276;-79
2023/01/14 09:29:23;;;;;;;0.25;0.22;;;16.80;49.60;;;;;;5088286;27;45233;-78
2023/01/14 09:31:50;;;;;;;0.80;0.30;;;16.80;49.70;;;;;;5088174;27;45406;-79
2023/01/14 09:34:17;;;;;;;1.15;0.50;;;16.80;50.10;;;;;;5088281;27;45255;-79
2023/01/14 09:36:43;;;;;;;1.83;0.65;;;16.80;50.20;;;;;;5088685;27;45404;-77
2023/01/14 09:39:10;;;;;;;1.45;0.60;;;16.80;49.80;;;;;;5088159;27;45472;-79
2023/01/14 09:41:38;;;;;;;1.38;0.70;;;16.80;49.90;;;;;;5087431;27;45374;-74
2023/01/14 09:44:10;;;;;;;1.67;0.50;;;16.80;49.70;;;;;;5087389;27;45263;-76
2023/01/14 09:46:37;;;;;;;1.75;0.70;;;16.80;50.10;;;;;;5088308;27;45397;-77
2023/01/14 09:49:04;;;;;;;2.75;0.68;;;16.80;50.20;;;;;;5088029;27;45513;-75
2023/01/14 09:51:42;;;;;;;5.25;0.60;;;16.80;50.10;;;;;;5087902;27;45265;-76
2023/01/14 09:54:11;;;;;;;0.80;0.80;;;16.80;50.00;;;;;;5087864;27;45216;-78
2023/01/14 09:56:39;;;;;;;1.10;0.82;;;16.80;50.60;;;;;;5088163;27;45384;-76
2023/01/14 09:59:12;;;;;;;1.75;0.63;;;16.80;50.20;;;;;;5087674;27;45528;-76
2023/01/14 10:01:41;;;;;;;2.30;0.70;;;16.80;50.30;;;;;;5087524;27;45337;-75
2023/01/14 10:04:16;;;;;;;2.20;0.40;;;16.80;50.10;;;;;;5087798;27;45192;-76
2023/01/14 10:06:43;;;;;;;1.83;0.40;;;16.70;50.20;;;;;;5087557;27;45207;-73
2023/01/14 10:09:12;;;;;;;0.45;0.45;;;16.80;50.00;;;;;;5087354;27;46317;-73
2023/01/14 10:11:40;;;;;;;6.32;0.57;;;16.80;50.70;;;;;;5087125;27;45248;-73
2023/01/14 10:14:12;;;;;;;1.20;0.47;;;16.80;50.60;;;;;;5087315;27;45287;-73
2023/01/14 10:16:40;;;;;;;1.42;0.50;;;16.80;50.00;;;;;;5087280;27;45386;-72
2023/01/14 10:19:10;;;;;;;3.50;0.75;;;16.80;50.50;;;;;;5087328;27;45501;-73
2023/01/14 10:21:41;;;;;;;4.88;0.63;;;16.80;50.60;;;;;;5086986;27;45559;-72
2023/01/14 10:24:09;;;;;;;2.92;0.90;;;16.80;50.80;;;;;;5087803;28;45351;-73
2023/01/14 10:26:35;;;;;;;3.13;0.60;;;16.80;51.50;;;;;;5088446;28;45126;-74
2023/01/14 10:29:04;;;;;;;2.95;0.40;;;16.80;52.20;;;;;;5086370;28;46838;-72
2023/01/14 10:31:33;;;;;;;2.30;0.57;;;16.80;51.90;;;;;;5085719;28;45245;-73
2023/01/14 10:34:00;;;;;;;1.48;0.60;;;16.90;52.20;;;;;;5084614;27;45229;-73
2023/01/14 10:36:29;;;;;;;1.48;0.60;;;16.90;50.20;;;;;;5087114;27;45339;-73
2023/01/14 10:38:56;;;;;;;1.30;0.60;;;16.90;50.50;;;;;;5086564;27;45444;-73
2023/01/14 10:44:04;;;;;;;0.68;0.40;;;16.90;50.00;;;;;;5084834;28;45244;-76
2023/01/14 10:46:32;;;;;;;0.57;0.40;;;17.00;49.90;;;;;;5087003;27;45318;-76
2023/01/14 10:49:00;;;;;;;1.30;0.43;;;16.90;49.80;;;;;;5086933;27;46756;-76
2023/01/14 10:51:33;;;;;;;0.85;0.50;;;17.00;49.40;;;;;;5087156;27;45425;-75
2023/01/14 10:54:10;;;;;;;0.82;0.60;;;16.90;48.80;;;;;;5084905;27;45406;-73
2023/01/14 10:56:38;;;;;;;0.52;0.30;;;16.80;48.80;;;;;;5086973;27;45434;-74
2023/01/14 10:59:05;;;;;;;2.85;0.50;;;16.70;49.00;;;;;;5086641;27;45359;-74
2023/01/14 11:01:40;;;;;;;1.10;0.40;;;16.60;49.20;;;;;;5085954;27;45202;-74
2023/01/14 11:04:11;;;;;;;0.43;0.30;;;16.60;49.40;;;;;;5084441;27;45336;-74
2023/01/14 11:06:38;;;;;;;3.58;0.57;;;16.60;49.20;;;;;;5086869;27;45400;-74
2023/01/14 11:09:05;;;;;;;0.20;0.20;;;16.60;49.60;;;;;;5086414;27;45471;-73
2023/01/14 11:11:38;;;;;;;0.75;0.43;;;16.60;49.60;;;;;;5086746;27;45304;-74
2023/01/14 11:14:18;;;;;;;1.77;0.50;;;16.60;49.20;;;;;;5084706;27;46655;-73
2023/01/14 11:16:46;;;;;;;0.88;0.60;;;16.60;49.20;;;;;;5086562;27;45479;-74
2023/01/14 11:19:19;;;;;;;0.98;0.65;;;16.60;49.50;;;;;;5086480;27;45407;-77
2023/01/14 11:21:47;;;;;;;2.50;0.70;;;16.60;49.10;;;;;;5086390;27;45287;-76
2023/01/14 11:24:26;;;;;;;2.83;0.70;;;16.50;49.10;;;;;;5084907;27;45553;-75
2023/01/14 11:27:00;;;;;;;0.60;0.60;;;16.50;49.00;;;;;;5086596;27;45447;-77
2023/01/14 11:29:27;;;;;;;1.35;0.40;;;16.50;49.30;;;;;;5086281;27;45307;-76
2023/01/14 11:31:56;;;;;;;1.40;0.40;;;16.60;48.60;;;;;;5086350;27;45178;-76
2023/01/14 11:34:28;;;;;;;5.32;0.60;;;16.60;48.70;;;;;;5085224;27;45303;-76
2023/01/14 11:37:03;;;;;;;2.60;0.50;;;16.60;48.80;;;;;;5085946;27;45203;-76
2023/01/14 11:39:30;;;;;;;2.60;0.50;;;16.60;49.10;;;;;;5088534;27;48953;-77
2023/01/14 11:41:57;;;;;;;1.50;0.40;;;16.60;49.20;;;;;;5089583;27;45176;-78
2023/01/14 11:44:25;;;;;;;0.98;0.60;;;16.60;49.90;;;;;;5088329;27;45243;-79
2023/01/14 11:47:14;;;;;;;1.85;0.50;;;16.70;50.20;;;;;;5089365;27;45609;-77
2023/01/14 11:49:41;;;;;;;1.70;0.40;;;16.70;49.80;;;;;;5089834;27;46635;-78
2023/01/14 11:52:18;;;;;;;5.93;1.17;;;16.70;49.60;;;;;;5090699;27;45398;-79
2023/01/14 11:54:47;;;;;;;8.80;1.45;;;16.70;50.20;;;;;;5089644;27;45314;-72
2023/01/14 11:57:16;;;;;;;1.02;0.90;;;16.80;50.60;;;;;;5089488;27;45540;-74
2023/01/14 11:59:42;;;;;;;5.80;0.98;;;16.80;50.40;;;;;;5089525;27;46654;-74
2023/01/14 12:02:15;;;;;;;5.18;1.42;;;16.90;49.70;;;;;;5089755;27;45369;-73
2023/01/14 12:04:46;;;;;;;4.07;1.23;;;17.10;48.90;;;;;;5090066;27;45299;-72
2023/01/14 12:07:13;;;;;;;8.85;2.22;;;17.20;48.30;;;;;;5088789;27;45139;-74
2023/01/14 12:09:44;;;;;;;6.63;2.95;;;17.20;47.10;;;;;;5089560;28;46781;-73
2023/01/14 12:12:14;;;;;;;4.07;1.70;;;17.20;47.40;;;;;;5090360;28;45402;-77
2023/01/14 12:17:42;;;;;;;6.65;1.63;;;17.10;47.40;;;;;;5062991;28;45578;-76
2023/01/14 12:20:11;;;;;;;5.82;2.05;;;17.10;47.90;;;;;;5065657;28;46882;-72
2023/01/14 12:22:42;;;;;;;4.20;1.60;;;17.10;47.90;;;;;;5064284;27;45466;-76
2023/01/14 12:25:15;;;;;;;7.57;1.40;;;17.00;48.30;;;;;;5096848;27;45170;-74
2023/01/14 12:27:47;;;;;;;5.38;0.98;;;17.10;48.70;;;;;;5091794;27;45387;-72
2023/01/14 12:30:42;;;;;;;2.42;0.90;;;17.10;47.90;;;;;;5089487;27;46701;-72
2023/01/14 12:33:16;;;;;;;3.70;1.15;;;17.10;48.60;;;;;;5092771;27;45280;-71
2023/01/14 12:35:45;;;;;;;6.38;1.10;;;17.10;48.80;;;;;;5106871;27;45611;-71
2023/01/14 12:46:25;;;;;;;32.97;2.65;;;17.20;48.60;;;;;;5100234;27;45387;-72
2023/01/14 12:48:53;;;;;;;54.67;4.55;;;17.20;48.60;;;;;;5084076;27;45409;-74
2023/01/14 12:51:21;;;;;;;15.85;2.38;;;17.30;49.10;;;;;;5085531;27;45583;-73
2023/01/14 12:53:50;;;;;;;20.17;1.98;;;17.30;48.90;;;;;;5085732;27;45458;-77
2023/01/14 12:56:19;;;;;;;11.93;2.80;;;17.30;48.60;;;;;;5080936;27;45473;-75
2023/01/14 12:58:53;;;;;;;13.57;2.22;;;17.30;48.20;;;;;;5090158;27;45407;-72
2023/01/14 13:01:22;;;;;;;11.43;3.08;;;17.30;48.70;;;;;;5085576;27;45533;-73
2023/01/14 13:03:52;;;;;;;7.05;2.72;;;17.30;48.70;;;;;;5076576;27;45336;-75
2023/01/14 13:06:25;;;;;;;16.42;6.72;;;17.30;48.80;;;;;;5088052;27;45265;-73
2023/01/14 13:08:53;;;;;;;14.32;6.18;;;17.30;48.70;;;;;;5086831;27;45590;-75
2023/01/14 13:11:20;;;;;;;21.48;5.43;;;17.30;48.50;;;;;;5086100;27;46014;-79
2023/01/14 13:13:50;;;;;;;17.63;3.95;;;17.20;48.30;;;;;;5082551;27;45301;-76
2023/01/14 13:16:35;;;;;;;13.23;2.65;;;17.30;48.30;;;;;;5104716;27;45295;-75
2023/01/14 13:19:02;;;;;;;13.90;3.78;;;17.20;47.20;;;;;;5095903;27;45447;-71
2023/01/14 13:21:55;;;;;;;6.03;1.58;;;17.20;47.70;;;;;;5089872;27;46454;-70
2023/01/14 13:24:34;;;;;;;17.13;2.38;;;17.10;48.00;;;;;;5076598;27;45388;-75
2023/01/14 13:27:01;;;;;;;10.82;1.88;;;17.20;48.30;;;;;;5080522;27;45427;-75
2023/01/14 13:29:30;;;;;;;15.70;3.10;;;17.20;48.60;;;;;;5078661;27;45595;-73
2023/01/14 13:31:56;;;;;;;11.10;1.60;;;17.20;48.60;;;;;;5078231;27;46487;-73